Littleton, CO (80127)

8:05 AM MDT on September 19, 2014 (GMT -0600)
Mill Hollow | Change Station
CLOSE
Current Station
Personal Weather Station
Location: Littleton, CO
Elevation: 7125 ft
Nearby Weather Stations

Elev 7125 ft 39.52 °N, 105.16 °W | Updated 10 minutes ago

Clear
Clear
59.3 °F
Feels Like 59.3 °F
N
5.0
Wind Variable Wind from SSW
Gusts 7.0 mph

Today
High -- | Low -- °F
--% Chance of Precip.
Yesterday
High -- | Low -- °F
Precip. -- in
6:45 AM 7:02 PM
Waning Crescent, 19% visible
Pressure 29.83 in
Visibility 10.0 miles
Clouds Few 9000 ft
Few 14000 ft
Dew Point 40 °F
Humidity 49%
Rainfall 0.00 in
Snow Depth 0 in , 0 in , 0 in
UV 1 out of 12
Pollen 7.50 out of 12
Ozone Good
PM2.5 Good
Flu Activity Not available.
METAR KAPA 191353Z 13006KT 10SM FEW090 FEW140 18/03 A3003 RMK AO2 SLP100 T01780028

More Conditions Fewer Conditions

Pressure 29.83 in
Visibility 10.0 miles
Clouds Few 9000 ft
Few 14000 ft
Dew Point 40 °F
Humidity 49%
Rainfall 0.00 in
Snow Depth 0 in , 0 in , 0 in
UV 1 out of 12
Pollen 7.50 out of 12
Ozone Good
PM2.5 Good
Flu Activity Not available.
METAR KAPA 191353Z 13006KT 10SM FEW090 FEW140 18/03 A3003 RMK AO2 SLP100 T01780028

More Conditions Fewer Conditions

10-Day Weather Forecast

Almanac

Astronomy

Sep. 19, 2014 Rise Set
Actual Time 6:45 AM MDT 7:02 PM MDT
Civil Twilight 6:18 AM MDT 7:29 PM MDT
Nautical Twilight 5:47 AM MDT 8:00 PM MDT
Astronomical Twilight 5:14 AM MDT 8:32 PM MDT
Moon 2:33 AM MDT 4:32 PM MDT
Length of Visible Light 13h 10m
Length of Day
12h 16m
Tomorrow will be 2m 33s shorter.
Waning Crescent, 19% of the Moon is Illuminated
Today
Waning Crescent
Sep 24
New
Oct 1
First Quarter
Oct 8
Full
Oct 15
Last Quarter

Today's Extremes

State Highs State Lows

Community

WunderPhotos

Upload Photos

1,754,614 photos uploaded!

WunderBlogs® & News

Nearby

Air Quality

  Air Quality AQ Index Pollutant
Yesterday Moderate
OZONE
Yesterday Good
PM10
Current Good
OZONE
Current Good
PM2.5
Friday Moderate
OZONE
Friday Good
PM2.5

Snow Depth

Station Depth Elevation
Lynx Pass 0 in 8880 ft
Porphyry Creek 0 in 10760 ft
Cascade 0 in 8880 ft
Summit Ranch 1 in 9400 ft
Beartown 0 in 11600 ft

Earthquake Activity

City Distance Mag. Time & Date
No recent earthquake activity has been reported nearby.
Minimum magnitude displayed is 2.5.

Coastal Water Temperatures

Place Temperature
No Stations Reporting

Nearby Weather Stations